createdAt,value
2019-06-01T00:10:13.171Z,6
2019-06-01T00:20:55.024Z,6
2019-06-01T00:31:35.018Z,6
2019-06-01T00:42:13.071Z,5
2019-06-01T00:52:56.030Z,5
2019-06-01T01:03:38.997Z,6
2019-06-01T01:14:22.204Z,6
2019-06-01T01:25:03.854Z,5
2019-06-01T01:35:47.529Z,5
2019-06-01T01:46:31.942Z,6
2019-06-01T01:57:14.681Z,6
2019-06-01T02:07:55.387Z,6
2019-06-01T02:18:37.846Z,6
2019-06-01T02:29:20.986Z,6
2019-06-01T02:40:05.520Z,6
2019-06-01T02:50:47.509Z,6
2019-06-01T03:01:29.594Z,6
2019-06-01T03:12:11.238Z,6
2019-06-01T03:22:53.362Z,7
2019-06-01T03:33:35.446Z,6
2019-06-01T03:44:18.649Z,6
2019-06-01T03:55:00.224Z,6
2019-06-01T04:05:42.304Z,7
2019-06-01T04:16:22.509Z,7
2019-06-01T04:27:04.044Z,7
2019-06-01T04:37:42.369Z,5
2019-06-01T04:48:28.405Z,4
2019-06-01T04:59:13.531Z,4
2019-06-01T05:09:56.788Z,4
2019-06-01T05:20:37.189Z,4
2019-06-01T05:31:25.048Z,4
2019-06-01T05:42:02.451Z,4
2019-06-01T05:52:47.829Z,3
2019-06-01T06:03:40.314Z,3
2019-06-01T06:14:13.375Z,3
2019-06-01T06:24:55.416Z,4
2019-06-01T06:35:38.721Z,3
2019-06-01T06:46:24.851Z,3
2019-06-01T06:57:09.278Z,3
2019-06-01T07:07:50.862Z,3
2019-06-01T07:18:29.572Z,4
2019-06-01T07:29:03.420Z,5
2019-06-01T07:39:41.842Z,4
2019-06-01T07:50:21.921Z,5
2019-06-01T08:01:01.753Z,5
2019-06-01T08:11:42.447Z,5
2019-06-01T08:22:23.906Z,4
2019-06-01T08:33:05.614Z,4
2019-06-01T08:43:46.780Z,4
2019-06-01T08:54:28.172Z,3
2019-06-01T09:05:23.264Z,3
2019-06-01T09:15:52.919Z,3
2019-06-01T09:26:33.868Z,2
2019-06-01T09:37:16.208Z,2
2019-06-01T09:47:50.795Z,2
2019-06-01T09:58:32.781Z,2
2019-06-01T10:09:11.906Z,2
2019-06-01T10:19:53.079Z,2
2019-06-01T10:30:34.119Z,2
2019-06-01T10:41:09.164Z,2
2019-06-01T10:51:50.336Z,2
2019-06-01T11:02:32.540Z,2
2019-06-01T11:13:11.389Z,2
2019-06-01T11:23:52.870Z,2
2019-06-01T11:34:34.155Z,2
2019-06-01T11:45:16.520Z,2
2019-06-01T11:55:57.568Z,2
2019-06-01T12:06:37.894Z,2
2019-06-01T12:49:14.409Z,3
2019-06-01T12:59:56.167Z,2
2019-06-01T13:10:38.320Z,2
2019-06-01T13:21:20.677Z,3
2019-06-01T13:32:04.702Z,3
2019-06-01T13:42:32.929Z,3
2019-06-01T13:53:17.914Z,2
2019-06-01T14:03:58.599Z,2
2019-06-01T14:14:38.594Z,2
2019-06-01T14:25:15.022Z,3
2019-06-01T14:35:56.775Z,3
2019-06-01T14:46:52.945Z,3
2019-06-01T14:57:20.711Z,2
2019-06-01T15:08:04.876Z,3
2019-06-01T15:18:46.047Z,3
2019-06-01T15:29:24.935Z,3
2019-06-01T15:40:05.855Z,3
2019-06-01T15:50:45.822Z,2
2019-06-01T16:01:28.789Z,2
2019-06-01T16:12:08.779Z,2
2019-06-01T16:22:47.066Z,2
2019-06-01T16:33:27.870Z,2
2019-06-01T16:44:09.012Z,3
2019-06-01T16:54:51.858Z,2
2019-06-01T17:05:34.823Z,2
2019-06-01T17:16:16.733Z,2
2019-06-01T17:27:02.139Z,2
2019-06-01T17:37:46.026Z,3
2019-06-01T17:48:26.935Z,3
2019-06-01T17:59:05.287Z,3
2019-06-01T18:09:44.746Z,3
2019-06-01T18:20:18.669Z,3
2019-06-01T18:30:54.678Z,3
2019-06-01T18:41:36.680Z,3
2019-06-01T18:52:19.287Z,3
2019-06-01T19:02:52.782Z,3
2019-06-01T19:13:33.104Z,4
2019-06-01T19:24:10.693Z,5
2019-06-01T19:34:50.992Z,9
2019-06-01T19:45:30.121Z,13
2019-06-01T19:56:13.470Z,6
2019-06-01T20:06:46.472Z,5
2019-06-01T20:17:28.820Z,6
2019-06-01T20:28:01.229Z,5
2019-06-01T20:52:47.691Z,8
2019-06-01T21:03:25.756Z,5
2019-06-01T21:14:02.600Z,5
2019-06-01T21:24:44.626Z,5
2019-06-01T21:35:25.688Z,6
2019-06-01T21:46:07.635Z,5
2019-06-01T21:56:50.943Z,6
2019-06-01T22:07:31.732Z,6
2019-06-01T22:18:14.726Z,7
2019-06-01T22:28:50.992Z,8
2019-06-01T22:39:32.991Z,7
2019-06-01T22:50:13.064Z,7
2019-06-01T23:00:51.844Z,8
2019-06-01T23:11:31.784Z,7
2019-06-01T23:22:14.754Z,7
2019-06-01T23:32:53.744Z,7
2019-06-01T23:43:33.001Z,7
2019-06-01T23:54:11.658Z,7
